Station History

Weather Underground - logo

Station Historical Data
Daily Summary for February 25, 2018 Units:  Both    English   Metric
« Previous Day
Next Day »
Daily Weekly Monthly Yearly Custom
  High: Low: Average:
Temperature: 61.6 °F /  16.4 °C 30.8 °F /  -0.7 °C 46 °F /  7.8 °C
Dew Point: 40.9 °F /  4.9 °C 27.4 °F /  -2.6 °C 33.3 °F /  0.7 °C
Humidity: 89 % 37 % 64 %
Wind Speed: 5.8 mph /  9.3 km/h - 1 mph /  1.6 km/h
Wind Gust: 5.8 mph /  9.3 km/h - -
Wind:- - SSW
Pressure: 30.39 in /  1029 hPa 30.19 in /  1022.2 hPa -
Precipitation: 0.00 in /  0 mm    
Historical Graphs
 
 
Tabular Data for February 25, 2018
Time Temperature Dew Point Pressure Wind Wind Speed Wind Gust Humidity Rainfall Rate (Hourly)
00:03 37.7 °F /  3.2 °C 29.1 °F /  -1.6 °C 30.31 in /  1026.3 hPa Calm     71 % 0.00 in /  0 mm
00:08 38.0 °F /  3.3 °C 29.1 °F /  -1.6 °C 30.31 in /  1026.3 hPa Calm     70 % 0.00 in /  0 mm
00:13 38.0 °F /  3.3 °C 29.4 °F /  -1.4 °C 30.31 in /  1026.3 hPa Calm     71 % 0.00 in /  0 mm
00:18 37.7 °F /  3.2 °C 29.5 °F /  -1.4 °C 30.31 in /  1026.3 hPa Calm     72 % 0.00 in /  0 mm
00:23 37.4 °F /  3 °C 29.2 °F /  -1.6 °C 30.31 in /  1026.3 hPa Calm     72 % 0.00 in /  0 mm
00:28 37.3 °F /  2.9 °C 29.1 °F /  -1.6 °C 30.31 in /  1026.3 hPa ESE 1.2 mph /  1.9 km/h   72 % 0.00 in /  0 mm
00:34 37.3 °F /  2.9 °C 29.1 °F /  -1.6 °C 30.31 in /  1026.3 hPa ESE 1.2 mph /  1.9 km/h   72 % 0.00 in /  0 mm
00:39 37.9 °F /  3.3 °C 29.0 °F /  -1.7 °C 30.31 in /  1026.3 hPa ESE 3.5 mph /  5.6 km/h 3.5 mph /  5.6 km/h 70 % 0.00 in /  0 mm
00:44 38.3 °F /  3.5 °C 29.0 °F /  -1.7 °C 30.31 in /  1026.3 hPa ESE 1.2 mph /  1.9 km/h   69 % 0.00 in /  0 mm
00:49 38.3 °F /  3.5 °C 29.0 °F /  -1.7 °C 30.31 in /  1026.3 hPa ESE 1.2 mph /  1.9 km/h   69 % 0.00 in /  0 mm
00:54 38.3 °F /  3.5 °C 29.0 °F /  -1.7 °C 30.31 in /  1026.3 hPa ESE 1.2 mph /  1.9 km/h   69 % 0.00 in /  0 mm
00:59 38.1 °F /  3.4 °C 28.8 °F /  -1.8 °C 30.31 in /  1026.3 hPa Calm     69 % 0.00 in /  0 mm
01:04 37.9 °F /  3.3 °C 29.0 °F /  -1.7 °C 30.31 in /  1026.3 hPa Calm     70 % 0.00 in /  0 mm
01:09 37.7 °F /  3.2 °C 28.8 °F /  -1.8 °C 30.31 in /  1026.3 hPa Calm     70 % 0.00 in /  0 mm
01:14 37.5 °F /  3.1 °C 28.9 °F /  -1.7 °C 30.31 in /  1026.3 hPa Calm     71 % 0.00 in /  0 mm
01:19 37.3 °F /  2.9 °C 28.8 °F /  -1.8 °C 30.31 in /  1026.3 hPa Calm     71 % 0.00 in /  0 mm
01:24 37.1 °F /  2.8 °C 28.9 °F /  -1.7 °C 30.31 in /  1026.3 hPa Calm     72 % 0.00 in /  0 mm
01:29 36.9 °F /  2.7 °C 29.1 °F /  -1.6 °C 30.31 in /  1026.3 hPa Calm     73 % 0.00 in /  0 mm
01:34 36.7 °F /  2.6 °C 28.9 °F /  -1.7 °C 30.31 in /  1026.3 hPa Calm     73 % 0.00 in /  0 mm
01:39 36.3 °F /  2.4 °C 29.5 °F /  -1.4 °C 30.31 in /  1026.3 hPa Calm     76 % 0.00 in /  0 mm
01:44 35.9 °F /  2.2 °C 29.4 °F /  -1.4 °C 30.31 in /  1026.3 hPa Calm     77 % 0.00 in /  0 mm
01:49 35.4 °F /  1.9 °C 28.9 °F /  -1.7 °C 30.31 in /  1026.3 hPa Calm     77 % 0.00 in /  0 mm
01:54 35.7 °F /  2.1 °C 29.5 °F /  -1.4 °C 30.31 in /  1026.3 hPa Calm     78 % 0.00 in /  0 mm
01:59 35.5 °F /  1.9 °C 29.6 °F /  -1.3 °C 30.31 in /  1026.3 hPa ESE 1.2 mph /  1.9 km/h   79 % 0.00 in /  0 mm
02:04 35.5 °F /  1.9 °C 29.9 °F /  -1.2 °C 30.31 in /  1026.3 hPa Calm     80 % 0.00 in /  0 mm
02:09 35.6 °F /  2 °C 29.7 °F /  -1.3 °C 30.31 in /  1026.3 hPa Calm     79 % 0.00 in /  0 mm
02:14 35.7 °F /  2.1 °C 29.5 °F /  -1.4 °C 30.31 in /  1026.3 hPa Calm     78 % 0.00 in /  0 mm
02:19 35.6 °F /  2 °C 29.1 °F /  -1.6 °C 30.31 in /  1026.3 hPa Calm     77 % 0.00 in /  0 mm
02:24 35.5 °F /  1.9 °C 29.0 °F /  -1.7 °C 30.31 in /  1026.3 hPa Calm     77 % 0.00 in /  0 mm
02:29 35.3 °F /  1.8 °C 28.8 °F /  -1.8 °C 30.31 in /  1026.3 hPa Calm     77 % 0.00 in /  0 mm
02:34 35.1 °F /  1.7 °C 28.9 °F /  -1.7 °C 30.31 in /  1026.3 hPa Calm     78 % 0.00 in /  0 mm
02:39 34.9 °F /  1.6 °C 29.0 °F /  -1.7 °C 30.31 in /  1026.3 hPa Calm     79 % 0.00 in /  0 mm
02:44 34.8 °F /  1.6 °C 29.0 °F /  -1.7 °C 30.31 in /  1026.3 hPa Calm     79 % 0.00 in /  0 mm
02:49 34.8 °F /  1.6 °C 29.0 °F /  -1.7 °C 30.31 in /  1026.3 hPa Calm     79 % 0.00 in /  0 mm
02:54 34.5 °F /  1.4 °C 28.7 °F /  -1.8 °C 30.31 in /  1026.3 hPa Calm     79 % 0.00 in /  0 mm
02:59 34.0 °F /  1.1 °C 28.5 °F /  -1.9 °C 30.31 in /  1026.3 hPa Calm     80 % 0.00 in /  0 mm
03:04 33.9 °F /  1.1 °C 28.4 °F /  -2 °C 30.30 in /  1026 hPa Calm     80 % 0.00 in /  0 mm
03:09 34.0 °F /  1.1 °C 28.5 °F /  -1.9 °C 30.31 in /  1026.3 hPa Calm     80 % 0.00 in /  0 mm
03:14 34.1 °F /  1.2 °C 28.6 °F /  -1.9 °C 30.31 in /  1026.3 hPa Calm     80 % 0.00 in /  0 mm
03:19 34.1 °F /  1.2 °C 28.6 °F /  -1.9 °C 30.31 in /  1026.3 hPa Calm     80 % 0.00 in /  0 mm
03:24 33.9 °F /  1.1 °C 28.4 °F /  -2 °C 30.31 in /  1026.3 hPa Calm     80 % 0.00 in /  0 mm
03:29 33.6 °F /  0.9 °C 28.4 °F /  -2 °C 30.31 in /  1026.3 hPa Calm     81 % 0.00 in /  0 mm
03:34 33.4 °F /  0.8 °C 28.5 °F /  -1.9 °C 30.31 in /  1026.3 hPa Calm     82 % 0.00 in /  0 mm
03:39 33.2 °F /  0.7 °C 28.3 °F /  -2.1 °C 30.31 in /  1026.3 hPa Calm     82 % 0.00 in /  0 mm
03:44 32.9 °F /  0.5 °C 28.0 °F /  -2.2 °C 30.31 in /  1026.3 hPa Calm     82 % 0.00 in /  0 mm
03:49 32.7 °F /  0.4 °C 28.1 °F /  -2.2 °C 30.31 in /  1026.3 hPa Calm     83 % 0.00 in /  0 mm
03:54 32.7 °F /  0.4 °C 28.7 °F /  -1.8 °C 30.31 in /  1026.3 hPa Calm     85 % 0.00 in /  0 mm
03:59 32.9 °F /  0.5 °C 28.6 °F /  -1.9 °C 30.31 in /  1026.3 hPa Calm     84 % 0.00 in /  0 mm
04:04 33.0 °F /  0.6 °C 28.7 °F /  -1.8 °C 30.31 in /  1026.3 hPa Calm     84 % 0.00 in /  0 mm
04:09 32.8 °F /  0.4 °C 28.2 °F /  -2.1 °C 30.31 in /  1026.3 hPa Calm     83 % 0.00 in /  0 mm
04:14 32.5 °F /  0.3 °C 27.9 °F /  -2.3 °C 30.31 in /  1026.3 hPa Calm     83 % 0.00 in /  0 mm
04:19 32.4 °F /  0.2 °C 28.1 °F /  -2.2 °C 30.31 in /  1026.3 hPa Calm     84 % 0.00 in /  0 mm
04:24 32.2 °F /  0.1 °C 27.9 °F /  -2.3 °C 30.32 in /  1026.6 hPa Calm     84 % 0.00 in /  0 mm
04:29 32.2 °F /  0.1 °C 28.2 °F /  -2.1 °C 30.31 in /  1026.3 hPa Calm     85 % 0.00 in /  0 mm
04:34 32.4 °F /  0.2 °C 28.4 °F /  -2 °C 30.31 in /  1026.3 hPa Calm     85 % 0.00 in /  0 mm
04:39 32.8 °F /  0.4 °C 28.2 °F /  -2.1 °C 30.32 in /  1026.6 hPa Calm     83 % 0.00 in /  0 mm
04:44 33.1 °F /  0.6 °C 28.2 °F /  -2.1 °C 30.32 in /  1026.6 hPa Calm     82 % 0.00 in /  0 mm
04:49 33.2 °F /  0.7 °C 28.0 °F /  -2.2 °C 30.32 in /  1026.6 hPa Calm     81 % 0.00 in /  0 mm
04:54 33.1 °F /  0.6 °C 28.2 °F /  -2.1 °C 30.32 in /  1026.6 hPa Calm     82 % 0.00 in /  0 mm
04:59 32.9 °F /  0.5 °C 28.3 °F /  -2.1 °C 30.32 in /  1026.6 hPa Calm     83 % 0.00 in /  0 mm
05:04 32.3 °F /  0.2 °C 28.0 °F /  -2.2 °C 30.32 in /  1026.6 hPa Calm     84 % 0.00 in /  0 mm
05:10 31.7 °F /  -0.2 °C 27.4 °F /  -2.6 °C 30.33 in /  1027 hPa Calm     84 % 0.00 in /  0 mm
05:15 31.4 °F /  -0.3 °C 27.7 °F /  -2.4 °C 30.33 in /  1027 hPa Calm     86 % 0.00 in /  0 mm
05:20 31.7 °F /  -0.2 °C 28.6 °F /  -1.9 °C 30.33 in /  1027 hPa Calm     88 % 0.00 in /  0 mm
05:25 32.0 °F /  0 °C 29.1 °F /  -1.6 °C 30.33 in /  1027 hPa Calm     89 % 0.00 in /  0 mm
05:30 32.1 °F /  0.1 °C 29.2 °F /  -1.6 °C 30.33 in /  1027 hPa Calm     89 % 0.00 in /  0 mm
05:35 32.0 °F /  0 °C 28.8 °F /  -1.8 °C 30.34 in /  1027.3 hPa Calm     88 % 0.00 in /  0 mm
05:40 31.8 °F /  -0.1 °C 28.7 °F /  -1.8 °C 30.34 in /  1027.3 hPa Calm     88 % 0.00 in /  0 mm
05:45 31.7 °F /  -0.2 °C 28.6 °F /  -1.9 °C 30.34 in /  1027.3 hPa Calm     88 % 0.00 in /  0 mm
05:50 31.7 °F /  -0.2 °C 28.6 °F /  -1.9 °C 30.34 in /  1027.3 hPa Calm     88 % 0.00 in /  0 mm
05:55 31.6 °F /  -0.2 °C 28.5 °F /  -1.9 °C 30.34 in /  1027.3 hPa Calm     88 % 0.00 in /  0 mm
06:00 31.5 °F /  -0.3 °C 28.4 °F /  -2 °C 30.34 in /  1027.3 hPa Calm     88 % 0.00 in /  0 mm
06:05 31.4 °F /  -0.3 °C 28.3 °F /  -2.1 °C 30.34 in /  1027.3 hPa Calm     88 % 0.00 in /  0 mm
06:10 31.2 °F /  -0.4 °C 28.1 °F /  -2.2 °C 30.35 in /  1027.7 hPa Calm     88 % 0.00 in /  0 mm
06:15 31.2 °F /  -0.4 °C 28.1 °F /  -2.2 °C 30.35 in /  1027.7 hPa Calm     88 % 0.00 in /  0 mm
06:20 31.1 °F /  -0.5 °C 28.0 °F /  -2.2 °C 30.35 in /  1027.7 hPa Calm     88 % 0.00 in /  0 mm
06:25 31.2 °F /  -0.4 °C 28.1 °F /  -2.2 °C 30.35 in /  1027.7 hPa Calm     88 % 0.00 in /  0 mm
06:30 31.2 °F /  -0.4 °C 28.1 °F /  -2.2 °C 30.35 in /  1027.7 hPa Calm     88 % 0.00 in /  0 mm
06:35 31.0 °F /  -0.6 °C 27.9 °F /  -2.3 °C 30.35 in /  1027.7 hPa Calm     88 % 0.00 in /  0 mm
06:40 30.9 °F /  -0.6 °C 27.8 °F /  -2.3 °C 30.36 in /  1028 hPa Calm     88 % 0.00 in /  0 mm
06:45 30.8 °F /  -0.7 °C 27.9 °F /  -2.3 °C 30.36 in /  1028 hPa Calm     89 % 0.00 in /  0 mm
06:50 30.9 °F /  -0.6 °C 28.0 °F /  -2.2 °C 30.36 in /  1028 hPa Calm     89 % 0.00 in /  0 mm
06:55 31.1 °F /  -0.5 °C 28.0 °F /  -2.2 °C 30.36 in /  1028 hPa Calm     88 % 0.00 in /  0 mm
07:00 31.5 °F /  -0.3 °C 28.4 °F /  -2 °C 30.36 in /  1028 hPa Calm     88 % 0.00 in /  0 mm
07:05 31.8 °F /  -0.1 °C 28.4 °F /  -2 °C 30.37 in /  1028.3 hPa Calm     87 % 0.00 in /  0 mm
07:10 32.1 °F /  0.1 °C 28.7 °F /  -1.8 °C 30.37 in /  1028.3 hPa Calm     87 % 0.00 in /  0 mm
07:15 32.4 °F /  0.2 °C 29.0 °F /  -1.7 °C 30.37 in /  1028.3 hPa Calm     87 % 0.00 in /  0 mm
07:20 32.7 °F /  0.4 °C 29.5 °F /  -1.4 °C 30.37 in /  1028.3 hPa Calm     88 % 0.00 in /  0 mm
07:25 32.9 °F /  0.5 °C 29.7 °F /  -1.3 °C 30.37 in /  1028.3 hPa Calm     88 % 0.00 in /  0 mm
07:30 33.3 °F /  0.7 °C 30.1 °F /  -1.1 °C 30.37 in /  1028.3 hPa Calm     88 % 0.00 in /  0 mm
07:35 34.0 °F /  1.1 °C 30.8 °F /  -0.7 °C 30.38 in /  1028.7 hPa Calm     88 % 0.00 in /  0 mm
07:40 35.5 °F /  1.9 °C 32.0 °F /  0 °C 30.38 in /  1028.7 hPa ESE 1.2 mph /  1.9 km/h 1.2 mph /  1.9 km/h 87 % 0.00 in /  0 mm
07:45 37.2 °F /  2.9 °C 32.8 °F /  0.4 °C 30.38 in /  1028.7 hPa Calm     84 % 0.00 in /  0 mm
07:50 38.7 °F /  3.7 °C 33.1 °F /  0.6 °C 30.38 in /  1028.7 hPa Calm     80 % 0.00 in /  0 mm
07:55 39.8 °F /  4.3 °C 33.2 °F /  0.7 °C 30.38 in /  1028.7 hPa SSE 2.3 mph /  3.7 km/h 2.3 mph /  3.7 km/h 77 % 0.00 in /  0 mm
08:00 40.6 °F /  4.8 °C 33.0 °F /  0.6 °C 30.38 in /  1028.7 hPa ESE 2.3 mph /  3.7 km/h 2.3 mph /  3.7 km/h 74 % 0.00 in /  0 mm
08:05 41.2 °F /  5.1 °C 32.9 °F /  0.5 °C 30.38 in /  1028.7 hPa ESE 1.2 mph /  1.9 km/h 1.2 mph /  1.9 km/h 72 % 0.00 in /  0 mm
08:15 42.5 °F /  5.8 °C 33.4 °F /  0.8 °C 30.38 in /  1028.7 hPa SE 1.2 mph /  1.9 km/h 1.2 mph /  1.9 km/h 70 % 0.00 in /  0 mm
08:20 43.2 °F /  6.2 °C 33.7 °F /  0.9 °C 30.39 in /  1029 hPa SE 3.5 mph /  5.6 km/h 3.5 mph /  5.6 km/h 69 % 0.00 in /  0 mm
08:25 43.7 °F /  6.5 °C 33.5 °F /  0.8 °C 30.39 in /  1029 hPa ESE 3.5 mph /  5.6 km/h 3.5 mph /  5.6 km/h 67 % 0.00 in /  0 mm
08:30 44.4 °F /  6.9 °C 34.1 °F /  1.2 °C 30.38 in /  1028.7 hPa ESE 1.2 mph /  1.9 km/h 1.2 mph /  1.9 km/h 67 % 0.00 in /  0 mm
08:35 45.1 °F /  7.3 °C 34.0 °F /  1.1 °C 30.39 in /  1029 hPa East 3.5 mph /  5.6 km/h 3.5 mph /  5.6 km/h 65 % 0.00 in /  0 mm
08:40 45.6 °F /  7.6 °C 34.5 °F /  1.4 °C 30.38 in /  1028.7 hPa SSE 1.2 mph /  1.9 km/h 1.2 mph /  1.9 km/h 65 % 0.00 in /  0 mm
08:45 46.3 °F /  7.9 °C 34.4 °F /  1.3 °C 30.39 in /  1029 hPa ESE 3.5 mph /  5.6 km/h 3.5 mph /  5.6 km/h 63 % 0.00 in /  0 mm
08:50 46.5 °F /  8.1 °C 33.8 °F /  1 °C 30.38 in /  1028.7 hPa East 3.5 mph /  5.6 km/h 3.5 mph /  5.6 km/h 61 % 0.00 in /  0 mm
08:55 46.9 °F /  8.3 °C 34.6 °F /  1.4 °C 30.38 in /  1028.7 hPa SSE 1.2 mph /  1.9 km/h 1.2 mph /  1.9 km/h 62 % 0.00 in /  0 mm
09:00 48.0 °F /  8.9 °C 35.2 °F /  1.8 °C 30.38 in /  1028.7 hPa Calm   0.1 mph /  0.2 km/h 61 % 0.00 in /  0 mm
09:05 48.8 °F /  9.3 °C 35.1 °F /  1.7 °C 30.38 in /  1028.7 hPa East 2.3 mph /  3.7 km/h 2.3 mph /  3.7 km/h 59 % 0.00 in /  0 mm
09:10 49.0 °F /  9.4 °C 34.4 °F /  1.3 °C 30.38 in /  1028.7 hPa ENE 3.5 mph /  5.6 km/h 3.5 mph /  5.6 km/h 57 % 0.00 in /  0 mm
09:15 49.2 °F /  9.6 °C 34.2 °F /  1.2 °C 30.38 in /  1028.7 hPa ESE 3.5 mph /  5.6 km/h 3.5 mph /  5.6 km/h 56 % 0.00 in /  0 mm
09:20 49.6 °F /  9.8 °C 34.1 °F /  1.2 °C 30.38 in /  1028.7 hPa ESE 3.5 mph /  5.6 km/h 3.5 mph /  5.6 km/h 55 % 0.00 in /  0 mm
09:26 50.1 °F /  10.1 °C 33.6 °F /  0.9 °C 30.38 in /  1028.7 hPa SSE 5.8 mph /  9.3 km/h 5.8 mph /  9.3 km/h 53 % 0.00 in /  0 mm
09:31 50.4 °F /  10.2 °C 33.9 °F /  1.1 °C 30.38 in /  1028.7 hPa SSE 3.5 mph /  5.6 km/h 3.5 mph /  5.6 km/h 53 % 0.00 in /  0 mm
09:36 50.9 °F /  10.5 °C 33.9 °F /  1.1 °C 30.38 in /  1028.7 hPa SSE 5.8 mph /  9.3 km/h 5.8 mph /  9.3 km/h 52 % 0.00 in /  0 mm
09:41 51.3 °F /  10.7 °C 34.3 °F /  1.3 °C 30.38 in /  1028.7 hPa ENE 3.5 mph /  5.6 km/h 3.5 mph /  5.6 km/h 52 % 0.00 in /  0 mm
09:46 51.8 °F /  11 °C 34.7 °F /  1.5 °C 30.38 in /  1028.7 hPa South 4.6 mph /  7.4 km/h 4.6 mph /  7.4 km/h 52 % 0.00 in /  0 mm
09:51 52.5 °F /  11.4 °C 34.9 °F /  1.6 °C 30.37 in /  1028.3 hPa ESE 4.6 mph /  7.4 km/h 4.6 mph /  7.4 km/h 51 % 0.00 in /  0 mm
09:56 52.9 °F /  11.6 °C 35.2 °F /  1.8 °C 30.37 in /  1028.3 hPa SSE 3.5 mph /  5.6 km/h 3.5 mph /  5.6 km/h 51 % 0.00 in /  0 mm
10:01 53.0 °F /  11.7 °C 34.8 °F /  1.6 °C 30.37 in /  1028.3 hPa South 3.5 mph /  5.6 km/h 3.5 mph /  5.6 km/h 50 % 0.00 in /  0 mm
10:06 53.3 °F /  11.8 °C 35.1 °F /  1.7 °C 30.37 in /  1028.3 hPa South 3.5 mph /  5.6 km/h 3.5 mph /  5.6 km/h 50 % 0.00 in /  0 mm
10:11 53.5 °F /  11.9 °C 35.3 °F /  1.8 °C 30.37 in /  1028.3 hPa SSE 3.5 mph /  5.6 km/h 3.5 mph /  5.6 km/h 50 % 0.00 in /  0 mm
10:16 53.7 °F /  12.1 °C 36.0 °F /  2.2 °C 30.37 in /  1028.3 hPa SSE 1.2 mph /  1.9 km/h 1.2 mph /  1.9 km/h 51 % 0.00 in /  0 mm
10:21 53.4 °F /  11.9 °C 36.7 °F /  2.6 °C 30.37 in /  1028.3 hPa South 3.0 mph /  4.8 km/h 3.0 mph /  4.8 km/h 53 % 0.00 in /  0 mm
10:26 53.9 °F /  12.2 °C 37.1 °F /  2.8 °C 30.37 in /  1028.3 hPa SSE 3.5 mph /  5.6 km/h 3.5 mph /  5.6 km/h 53 % 0.00 in /  0 mm
10:31 54.1 °F /  12.3 °C 36.4 °F /  2.4 °C 30.37 in /  1028.3 hPa NE 3.5 mph /  5.6 km/h 3.5 mph /  5.6 km/h 51 % 0.00 in /  0 mm
10:36 54.7 °F /  12.6 °C 37.4 °F /  3 °C 30.36 in /  1028 hPa ESE 4.6 mph /  7.4 km/h 4.6 mph /  7.4 km/h 52 % 0.00 in /  0 mm
10:41 54.5 °F /  12.5 °C 36.7 °F /  2.6 °C 30.36 in /  1028 hPa WNW 3.5 mph /  5.6 km/h 3.5 mph /  5.6 km/h 51 % 0.00 in /  0 mm
10:46 54.7 °F /  12.6 °C 38.4 °F /  3.6 °C 30.36 in /  1028 hPa NNW 3.5 mph /  5.6 km/h 3.5 mph /  5.6 km/h 54 % 0.00 in /  0 mm
10:51 55.2 °F /  12.9 °C 38.4 °F /  3.6 °C 30.36 in /  1028 hPa NNW 3.5 mph /  5.6 km/h 3.5 mph /  5.6 km/h 53 % 0.00 in /  0 mm
10:56 55.6 °F /  13.1 °C 39.2 °F /  4 °C 30.36 in /  1028 hPa WSW 1.2 mph /  1.9 km/h 1.2 mph /  1.9 km/h 54 % 0.00 in /  0 mm
11:01 56.1 °F /  13.4 °C 38.2 °F /  3.4 °C 30.36 in /  1028 hPa West 2.3 mph /  3.7 km/h 2.3 mph /  3.7 km/h 51 % 0.00 in /  0 mm
11:06 56.1 °F /  13.4 °C 39.2 °F /  4 °C 30.36 in /  1028 hPa SSW 3.0 mph /  4.8 km/h 3.0 mph /  4.8 km/h 53 % 0.00 in /  0 mm
11:11 56.6 °F /  13.7 °C 39.2 °F /  4 °C 30.36 in /  1028 hPa SSW 3.5 mph /  5.6 km/h 3.5 mph /  5.6 km/h 52 % 0.00 in /  0 mm
11:16 56.9 °F /  13.8 °C 39.9 °F /  4.4 °C 30.35 in /  1027.7 hPa South 2.3 mph /  3.7 km/h 2.3 mph /  3.7 km/h 53 % 0.00 in /  0 mm
11:21 57.3 °F /  14.1 °C 39.8 °F /  4.3 °C 30.35 in /  1027.7 hPa SE 3.5 mph /  5.6 km/h 3.5 mph /  5.6 km/h 52 % 0.00 in /  0 mm
11:26 57.1 °F /  13.9 °C 39.6 °F /  4.2 °C 30.34 in /  1027.3 hPa NW 2.3 mph /  3.7 km/h 2.3 mph /  3.7 km/h 52 % 0.00 in /  0 mm
11:31 56.9 °F /  13.8 °C 39.9 °F /  4.4 °C 30.34 in /  1027.3 hPa SSE 3.5 mph /  5.6 km/h 3.5 mph /  5.6 km/h 53 % 0.00 in /  0 mm
11:36 57.3 °F /  14.1 °C 40.3 °F /  4.6 °C 30.34 in /  1027.3 hPa NW 3.5 mph /  5.6 km/h 3.5 mph /  5.6 km/h 53 % 0.00 in /  0 mm
11:41 57.4 °F /  14.1 °C 40.9 °F /  4.9 °C 30.34 in /  1027.3 hPa SE 3.5 mph /  5.6 km/h 3.5 mph /  5.6 km/h 54 % 0.00 in /  0 mm
11:46 57.4 °F /  14.1 °C 40.4 °F /  4.7 °C 30.33 in /  1027 hPa NNW 2.3 mph /  3.7 km/h 2.3 mph /  3.7 km/h 53 % 0.00 in /  0 mm
11:51 57.4 °F /  14.1 °C 39.4 °F /  4.1 °C 30.33 in /  1027 hPa NW 3.5 mph /  5.6 km/h 3.5 mph /  5.6 km/h 51 % 0.00 in /  0 mm
11:56 57.6 °F /  14.2 °C 40.1 °F /  4.5 °C 30.33 in /  1027 hPa ESE 3.5 mph /  5.6 km/h 3.5 mph /  5.6 km/h 52 % 0.00 in /  0 mm
12:01 58.2 °F /  14.6 °C 40.1 °F /  4.5 °C 30.32 in /  1026.6 hPa NW 3.5 mph /  5.6 km/h 3.5 mph /  5.6 km/h 51 % 0.00 in /  0 mm
12:06 57.9 °F /  14.4 °C 39.9 °F /  4.4 °C 30.32 in /  1026.6 hPa NE 2.3 mph /  3.7 km/h 2.3 mph /  3.7 km/h 51 % 0.00 in /  0 mm
12:11 58.6 °F /  14.8 °C 39.5 °F /  4.2 °C 30.32 in /  1026.6 hPa SW 3.5 mph /  5.6 km/h 3.5 mph /  5.6 km/h 49 % 0.00 in /  0 mm
12:16 58.8 °F /  14.9 °C 40.2 °F /  4.6 °C 30.32 in /  1026.6 hPa SSE 3.5 mph /  5.6 km/h 3.5 mph /  5.6 km/h 50 % 0.00 in /  0 mm
12:21 59.0 °F /  15 °C 39.9 °F /  4.4 °C 30.31 in /  1026.3 hPa WNW 1.2 mph /  1.9 km/h 1.2 mph /  1.9 km/h 49 % 0.00 in /  0 mm
12:26 59.4 °F /  15.2 °C 40.7 °F /  4.8 °C 30.31 in /  1026.3 hPa NW 2.3 mph /  3.7 km/h 2.3 mph /  3.7 km/h 50 % 0.00 in /  0 mm
12:31 59.9 °F /  15.5 °C 40.7 °F /  4.8 °C 30.31 in /  1026.3 hPa WNW 3.0 mph /  4.8 km/h 3.0 mph /  4.8 km/h 49 % 0.00 in /  0 mm
12:36 59.7 °F /  15.4 °C 38.9 °F /  3.8 °C 30.31 in /  1026.3 hPa NW 3.5 mph /  5.6 km/h 3.5 mph /  5.6 km/h 46 % 0.00 in /  0 mm
12:41 59.1 °F /  15.1 °C 38.9 °F /  3.8 °C 30.30 in /  1026 hPa NW 1.2 mph /  1.9 km/h 1.2 mph /  1.9 km/h 47 % 0.00 in /  0 mm
12:46 58.6 °F /  14.8 °C 38.4 °F /  3.6 °C 30.30 in /  1026 hPa SSW 3.5 mph /  5.6 km/h 3.5 mph /  5.6 km/h 47 % 0.00 in /  0 mm
12:51 59.4 °F /  15.2 °C 39.1 °F /  3.9 °C 30.30 in /  1026 hPa NNW 3.5 mph /  5.6 km/h 3.5 mph /  5.6 km/h 47 % 0.00 in /  0 mm
12:56 59.1 °F /  15.1 °C 37.8 °F /  3.2 °C 30.29 in /  1025.6 hPa NNW 1.2 mph /  1.9 km/h   45 % 0.00 in /  0 mm
13:01 59.4 °F /  15.2 °C 36.9 °F /  2.7 °C 30.29 in /  1025.6 hPa NW 1.2 mph /  1.9 km/h 1.4 mph /  2.3 km/h 43 % 0.00 in /  0 mm
13:06 59.0 °F /  15 °C 37.1 °F /  2.8 °C 30.28 in /  1025.3 hPa WNW 5.8 mph /  9.3 km/h 5.8 mph /  9.3 km/h 44 % 0.00 in /  0 mm
13:11 59.6 °F /  15.3 °C 38.2 °F /  3.4 °C 30.28 in /  1025.3 hPa South 3.5 mph /  5.6 km/h 3.5 mph /  5.6 km/h 45 % 0.00 in /  0 mm
13:16 60.6 °F /  15.9 °C 36.1 °F /  2.3 °C 30.28 in /  1025.3 hPa NNW 3.5 mph /  5.6 km/h 3.5 mph /  5.6 km/h 40 % 0.00 in /  0 mm
13:22 59.8 °F /  15.4 °C 36.6 °F /  2.6 °C 30.28 in /  1025.3 hPa South 2.3 mph /  3.7 km/h 2.3 mph /  3.7 km/h 42 % 0.00 in /  0 mm
13:27 60.6 °F /  15.9 °C 36.8 °F /  2.7 °C 30.27 in /  1024.9 hPa SSE 1.2 mph /  1.9 km/h 1.2 mph /  1.9 km/h 41 % 0.00 in /  0 mm
13:32 61.1 °F /  16.2 °C 36.6 °F /  2.6 °C 30.27 in /  1024.9 hPa WNW 1.2 mph /  1.9 km/h 1.2 mph /  1.9 km/h 40 % 0.00 in /  0 mm
13:37 61.5 °F /  16.4 °C 35.6 °F /  2 °C 30.27 in /  1024.9 hPa NNW 1.2 mph /  1.9 km/h 1.2 mph /  1.9 km/h 38 % 0.00 in /  0 mm
13:42 61.3 °F /  16.3 °C 35.5 °F /  1.9 °C 30.26 in /  1024.6 hPa WNW 1.2 mph /  1.9 km/h 1.2 mph /  1.9 km/h 38 % 0.00 in /  0 mm
13:47 60.8 °F /  16 °C 35.7 °F /  2.1 °C 30.26 in /  1024.6 hPa WNW 1.2 mph /  1.9 km/h   39 % 0.00 in /  0 mm
13:52 61.1 °F /  16.2 °C 36.6 °F /  2.6 °C 30.26 in /  1024.6 hPa East 2.3 mph /  3.7 km/h 2.3 mph /  3.7 km/h 40 % 0.00 in /  0 mm
13:57 61.6 °F /  16.4 °C 35.7 °F /  2.1 °C 30.26 in /  1024.6 hPa NW 2.3 mph /  3.7 km/h 2.3 mph /  3.7 km/h 38 % 0.00 in /  0 mm
14:02 61.4 °F /  16.3 °C 36.2 °F /  2.3 °C 30.26 in /  1024.6 hPa North 3.0 mph /  4.8 km/h 3.0 mph /  4.8 km/h 39 % 0.00 in /  0 mm
14:07 61.0 °F /  16.1 °C 35.8 °F /  2.1 °C 30.26 in /  1024.6 hPa NNE 1.2 mph /  1.9 km/h 1.2 mph /  1.9 km/h 39 % 0.00 in /  0 mm
14:12 60.7 °F /  15.9 °C 35.6 °F /  2 °C 30.26 in /  1024.6 hPa NNW 3.5 mph /  5.6 km/h 3.5 mph /  5.6 km/h 39 % 0.00 in /  0 mm
14:17 60.5 °F /  15.8 °C 36.7 °F /  2.6 °C 30.25 in /  1024.3 hPa WNW 2.0 mph /  3.2 km/h 2.0 mph /  3.2 km/h 41 % 0.00 in /  0 mm
14:22 60.4 °F /  15.8 °C 36.6 °F /  2.6 °C 30.25 in /  1024.3 hPa Calm     41 % 0.00 in /  0 mm
14:27 60.5 °F /  15.8 °C 36.0 °F /  2.2 °C 30.25 in /  1024.3 hPa West 3.0 mph /  4.8 km/h 3.0 mph /  4.8 km/h 40 % 0.00 in /  0 mm
14:32 60.5 °F /  15.8 °C 35.4 °F /  1.9 °C 30.24 in /  1023.9 hPa NW 3.5 mph /  5.6 km/h 3.5 mph /  5.6 km/h 39 % 0.00 in /  0 mm
14:37 60.5 °F /  15.8 °C 36.0 °F /  2.2 °C 30.24 in /  1023.9 hPa NW 1.2 mph /  1.9 km/h 1.2 mph /  1.9 km/h 40 % 0.00 in /  0 mm
14:42 60.9 °F /  16.1 °C 36.4 °F /  2.4 °C 30.24 in /  1023.9 hPa South 2.3 mph /  3.7 km/h 2.3 mph /  3.7 km/h 40 % 0.00 in /  0 mm
14:47 60.9 °F /  16.1 °C 35.8 °F /  2.1 °C 30.24 in /  1023.9 hPa WSW 3.5 mph /  5.6 km/h 3.5 mph /  5.6 km/h 39 % 0.00 in /  0 mm
14:52 60.8 °F /  16 °C 35.7 °F /  2.1 °C 30.24 in /  1023.9 hPa Calm     39 % 0.00 in /  0 mm
14:57 60.8 °F /  16 °C 35.0 °F /  1.7 °C 30.24 in /  1023.9 hPa WNW 2.3 mph /  3.7 km/h 2.3 mph /  3.7 km/h 38 % 0.00 in /  0 mm
15:02 60.7 °F /  15.9 °C 34.9 °F /  1.6 °C 30.23 in /  1023.6 hPa Calm     38 % 0.00 in /  0 mm
15:07 60.8 °F /  16 °C 35.7 °F /  2.1 °C 30.23 in /  1023.6 hPa WNW 2.3 mph /  3.7 km/h 2.3 mph /  3.7 km/h 39 % 0.00 in /  0 mm
15:12 60.9 °F /  16.1 °C 35.1 °F /  1.7 °C 30.23 in /  1023.6 hPa West 3.5 mph /  5.6 km/h 3.5 mph /  5.6 km/h 38 % 0.00 in /  0 mm
15:17 60.8 °F /  16 °C 34.3 °F /  1.3 °C 30.23 in /  1023.6 hPa WNW 3.5 mph /  5.6 km/h 3.5 mph /  5.6 km/h 37 % 0.00 in /  0 mm
15:22 60.5 °F /  15.8 °C 36.0 °F /  2.2 °C 30.22 in /  1023.2 hPa South 1.2 mph /  1.9 km/h   40 % 0.00 in /  0 mm
15:27 60.7 °F /  15.9 °C 36.2 °F /  2.3 °C 30.22 in /  1023.2 hPa SSE 2.3 mph /  3.7 km/h 2.3 mph /  3.7 km/h 40 % 0.00 in /  0 mm
15:32 60.9 °F /  16.1 °C 36.4 °F /  2.4 °C 30.22 in /  1023.2 hPa NW 2.3 mph /  3.7 km/h 2.3 mph /  3.7 km/h 40 % 0.00 in /  0 mm
15:37 60.5 °F /  15.8 °C 35.4 °F /  1.9 °C 30.22 in /  1023.2 hPa NW 2.0 mph /  3.2 km/h   39 % 0.00 in /  0 mm
15:42 60.2 °F /  15.7 °C 35.1 °F /  1.7 °C 30.21 in /  1022.9 hPa NW 2.3 mph /  3.7 km/h 2.3 mph /  3.7 km/h 39 % 0.00 in /  0 mm
15:47 60.0 °F /  15.6 °C 35.0 °F /  1.7 °C 30.21 in /  1022.9 hPa West 1.2 mph /  1.9 km/h 1.2 mph /  1.9 km/h 39 % 0.00 in /  0 mm
15:52 59.9 °F /  15.5 °C 36.1 °F /  2.3 °C 30.21 in /  1022.9 hPa NW 3.5 mph /  5.6 km/h 3.5 mph /  5.6 km/h 41 % 0.00 in /  0 mm
15:57 59.9 °F /  15.5 °C 34.9 °F /  1.6 °C 30.21 in /  1022.9 hPa NW 3.5 mph /  5.6 km/h 3.5 mph /  5.6 km/h 39 % 0.00 in /  0 mm
16:02 59.8 °F /  15.4 °C 34.8 °F /  1.6 °C 30.21 in /  1022.9 hPa NW 3.5 mph /  5.6 km/h 3.5 mph /  5.6 km/h 39 % 0.00 in /  0 mm
16:07 59.7 °F /  15.4 °C 34.7 °F /  1.5 °C 30.21 in /  1022.9 hPa WNW 2.3 mph /  3.7 km/h 2.3 mph /  3.7 km/h 39 % 0.00 in /  0 mm
16:12 59.8 °F /  15.4 °C 34.1 °F /  1.2 °C 30.21 in /  1022.9 hPa NW 1.2 mph /  1.9 km/h 1.2 mph /  1.9 km/h 38 % 0.00 in /  0 mm
16:17 60.1 °F /  15.6 °C 34.4 °F /  1.3 °C 30.21 in /  1022.9 hPa NNW 1.2 mph /  1.9 km/h 1.2 mph /  1.9 km/h 38 % 0.00 in /  0 mm
16:22 60.1 °F /  15.6 °C 33.7 °F /  0.9 °C 30.20 in /  1022.6 hPa Calm     37 % 0.00 in /  0 mm
16:27 59.8 °F /  15.4 °C 33.5 °F /  0.8 °C 30.20 in /  1022.6 hPa Calm     37 % 0.00 in /  0 mm
16:32 59.5 °F /  15.3 °C 33.2 °F /  0.7 °C 30.20 in /  1022.6 hPa Calm     37 % 0.00 in /  0 mm
16:37 59.4 °F /  15.2 °C 33.1 °F /  0.6 °C 30.20 in /  1022.6 hPa Calm     37 % 0.00 in /  0 mm
16:42 59.1 °F /  15.1 °C 34.8 °F /  1.6 °C 30.21 in /  1022.9 hPa Calm     40 % 0.00 in /  0 mm
16:47 59.0 °F /  15 °C 34.1 °F /  1.2 °C 30.20 in /  1022.6 hPa NW 1.2 mph /  1.9 km/h   39 % 0.00 in /  0 mm
16:52 58.8 °F /  14.9 °C 33.9 °F /  1.1 °C 30.20 in /  1022.6 hPa Calm     39 % 0.00 in /  0 mm
16:57 58.6 °F /  14.8 °C 33.7 °F /  0.9 °C 30.21 in /  1022.9 hPa Calm     39 % 0.00 in /  0 mm
17:02 58.4 °F /  14.7 °C 34.8 °F /  1.6 °C 30.20 in /  1022.6 hPa Calm     41 % 0.00 in /  0 mm
17:07 58.1 °F /  14.5 °C 33.9 °F /  1.1 °C 30.20 in /  1022.6 hPa Calm     40 % 0.00 in /  0 mm
17:12 58.0 °F /  14.4 °C 33.8 °F /  1 °C 30.20 in /  1022.6 hPa Calm     40 % 0.00 in /  0 mm
17:17 57.9 °F /  14.4 °C 34.3 °F /  1.3 °C 30.20 in /  1022.6 hPa Calm     41 % 0.00 in /  0 mm
17:22 57.6 °F /  14.2 °C 35.2 °F /  1.8 °C 30.20 in /  1022.6 hPa Calm     43 % 0.00 in /  0 mm
17:27 57.2 °F /  14 °C 34.9 °F /  1.6 °C 30.21 in /  1022.9 hPa Calm     43 % 0.00 in /  0 mm
17:32 56.7 °F /  13.7 °C 35.0 °F /  1.7 °C 30.21 in /  1022.9 hPa Calm     44 % 0.00 in /  0 mm
17:37 56.3 °F /  13.5 °C 35.2 °F /  1.8 °C 30.21 in /  1022.9 hPa Calm     45 % 0.00 in /  0 mm
17:42 55.8 °F /  13.2 °C 35.3 °F /  1.8 °C 30.20 in /  1022.6 hPa Calm     46 % 0.00 in /  0 mm
17:47 55.3 °F /  12.9 °C 35.4 °F /  1.9 °C 30.21 in /  1022.9 hPa Calm     47 % 0.00 in /  0 mm
17:52 54.7 °F /  12.6 °C 36.4 °F /  2.4 °C 30.21 in /  1022.9 hPa Calm     50 % 0.00 in /  0 mm
17:57 53.9 °F /  12.2 °C 36.2 °F /  2.3 °C 30.20 in /  1022.6 hPa Calm     51 % 0.00 in /  0 mm
18:02 53.2 °F /  11.8 °C 36.0 °F /  2.2 °C 30.21 in /  1022.9 hPa Calm     52 % 0.00 in /  0 mm
18:07 52.6 °F /  11.4 °C 36.4 °F /  2.4 °C 30.21 in /  1022.9 hPa Calm     54 % 0.00 in /  0 mm
18:12 52.0 °F /  11.1 °C 36.8 °F /  2.7 °C 30.21 in /  1022.9 hPa Calm     56 % 0.00 in /  0 mm
18:17 51.8 °F /  11 °C 36.1 °F /  2.3 °C 30.21 in /  1022.9 hPa SSE 1.0 mph /  1.6 km/h 1.0 mph /  1.6 km/h 55 % 0.00 in /  0 mm
18:22 51.5 °F /  10.8 °C 36.3 °F /  2.4 °C 30.21 in /  1022.9 hPa Calm     56 % 0.00 in /  0 mm
18:27 51.1 °F /  10.6 °C 36.4 °F /  2.4 °C 30.21 in /  1022.9 hPa Calm     57 % 0.00 in /  0 mm
18:32 50.8 °F /  10.4 °C 36.1 °F /  2.3 °C 30.21 in /  1022.9 hPa Calm     57 % 0.00 in /  0 mm
18:37 50.4 °F /  10.2 °C 36.6 °F /  2.6 °C 30.21 in /  1022.9 hPa Calm     59 % 0.00 in /  0 mm
18:42 49.9 °F /  9.9 °C 35.7 °F /  2.1 °C 30.21 in /  1022.9 hPa Calm     58 % 0.00 in /  0 mm
18:47 49.4 °F /  9.7 °C 36.5 °F /  2.5 °C 30.21 in /  1022.9 hPa Calm     61 % 0.00 in /  0 mm
18:52 49.1 °F /  9.5 °C 36.2 °F /  2.3 °C 30.21 in /  1022.9 hPa Calm     61 % 0.00 in /  0 mm
18:57 48.7 °F /  9.3 °C 35.8 °F /  2.1 °C 30.21 in /  1022.9 hPa Calm     61 % 0.00 in /  0 mm
19:02 48.2 °F /  9 °C 35.8 °F /  2.1 °C 30.21 in /  1022.9 hPa Calm     62 % 0.00 in /  0 mm
19:07 47.9 °F /  8.8 °C 35.9 °F /  2.2 °C 30.21 in /  1022.9 hPa Calm     63 % 0.00 in /  0 mm
19:12 47.7 °F /  8.7 °C 36.5 °F /  2.5 °C 30.21 in /  1022.9 hPa Calm     65 % 0.00 in /  0 mm
19:17 47.5 °F /  8.6 °C 36.7 °F /  2.6 °C 30.21 in /  1022.9 hPa Calm     66 % 0.00 in /  0 mm
19:22 47.4 °F /  8.6 °C 36.6 °F /  2.6 °C 30.21 in /  1022.9 hPa Calm     66 % 0.00 in /  0 mm
19:27 47.2 °F /  8.4 °C 36.0 °F /  2.2 °C 30.21 in /  1022.9 hPa Calm     65 % 0.00 in /  0 mm
19:33 47.1 °F /  8.4 °C 35.5 °F /  1.9 °C 30.21 in /  1022.9 hPa Calm     64 % 0.00 in /  0 mm
19:38 47.1 °F /  8.4 °C 35.1 °F /  1.7 °C 30.21 in /  1022.9 hPa Calm     63 % 0.00 in /  0 mm
19:43 47.2 °F /  8.4 °C 35.2 °F /  1.8 °C 30.21 in /  1022.9 hPa Calm     63 % 0.00 in /  0 mm
19:48 47.2 °F /  8.4 °C 35.2 °F /  1.8 °C 30.21 in /  1022.9 hPa Calm     63 % 0.00 in /  0 mm
19:53 47.1 °F /  8.4 °C 35.1 °F /  1.7 °C 30.21 in /  1022.9 hPa Calm     63 % 0.00 in /  0 mm
19:58 47.0 °F /  8.3 °C 35.0 °F /  1.7 °C 30.21 in /  1022.9 hPa Calm     63 % 0.00 in /  0 mm
20:03 47.3 °F /  8.5 °C 34.9 °F /  1.6 °C 30.21 in /  1022.9 hPa Calm     62 % 0.00 in /  0 mm
20:08 47.5 °F /  8.6 °C 34.3 °F /  1.3 °C 30.21 in /  1022.9 hPa Calm     60 % 0.00 in /  0 mm
20:13 47.5 °F /  8.6 °C 34.7 °F /  1.5 °C 30.21 in /  1022.9 hPa Calm     61 % 0.00 in /  0 mm
20:18 47.4 °F /  8.6 °C 34.2 °F /  1.2 °C 30.21 in /  1022.9 hPa Calm     60 % 0.00 in /  0 mm
20:23 47.3 °F /  8.5 °C 34.1 °F /  1.2 °C 30.21 in /  1022.9 hPa Calm     60 % 0.00 in /  0 mm
20:28 47.2 °F /  8.4 °C 34.0 °F /  1.1 °C 30.21 in /  1022.9 hPa Calm     60 % 0.00 in /  0 mm
20:33 47.1 °F /  8.4 °C 33.9 °F /  1.1 °C 30.21 in /  1022.9 hPa Calm     60 % 0.00 in /  0 mm
20:38 46.9 °F /  8.3 °C 33.7 °F /  0.9 °C 30.21 in /  1022.9 hPa Calm     60 % 0.00 in /  0 mm
20:43 46.8 °F /  8.2 °C 33.6 °F /  0.9 °C 30.21 in /  1022.9 hPa Calm     60 % 0.00 in /  0 mm
20:48 46.5 °F /  8.1 °C 33.8 °F /  1 °C 30.21 in /  1022.9 hPa Calm     61 % 0.00 in /  0 mm
20:53 46.2 °F /  7.9 °C 33.9 °F /  1.1 °C 30.22 in /  1023.2 hPa Calm     62 % 0.00 in /  0 mm
20:58 45.6 °F /  7.6 °C 34.5 °F /  1.4 °C 30.22 in /  1023.2 hPa Calm     65 % 0.00 in /  0 mm
21:03 44.9 °F /  7.2 °C 33.8 °F /  1 °C 30.22 in /  1023.2 hPa Calm     65 % 0.00 in /  0 mm
21:08 44.5 °F /  6.9 °C 34.6 °F /  1.4 °C 30.22 in /  1023.2 hPa Calm     68 % 0.00 in /  0 mm
21:13 44.2 °F /  6.8 °C 33.9 °F /  1.1 °C 30.22 in /  1023.2 hPa Calm     67 % 0.00 in /  0 mm
21:18 43.7 °F /  6.5 °C 34.6 °F /  1.4 °C 30.21 in /  1022.9 hPa Calm     70 % 0.00 in /  0 mm
21:23 43.3 °F /  6.3 °C 34.9 °F /  1.6 °C 30.21 in /  1022.9 hPa Calm     72 % 0.00 in /  0 mm
21:28 42.7 °F /  5.9 °C 34.3 °F /  1.3 °C 30.21 in /  1022.9 hPa Calm     72 % 0.00 in /  0 mm
21:33 42.5 °F /  5.8 °C 34.5 °F /  1.4 °C 30.22 in /  1023.2 hPa Calm     73 % 0.00 in /  0 mm
21:38 42.2 °F /  5.7 °C 34.2 °F /  1.2 °C 30.21 in /  1022.9 hPa Calm     73 % 0.00 in /  0 mm
21:42 41.7 °F /  5.4 °C 34.0 °F /  1.1 °C 30.21 in /  1022.9 hPa Calm     74 % 0.00 in /  0 mm
21:47 41.1 °F /  5.1 °C 33.8 °F /  1 °C 30.21 in /  1022.9 hPa Calm     75 % 0.00 in /  0 mm
21:52 40.9 °F /  4.9 °C 33.9 °F /  1.1 °C 30.21 in /  1022.9 hPa Calm     76 % 0.00 in /  0 mm
21:57 41.0 °F /  5 °C 34.0 °F /  1.1 °C 30.21 in /  1022.9 hPa Calm     76 % 0.00 in /  0 mm
22:02 41.3 °F /  5.2 °C 34.0 °F /  1.1 °C 30.21 in /  1022.9 hPa Calm     75 % 0.00 in /  0 mm
22:07 41.3 °F /  5.2 °C 34.0 °F /  1.1 °C 30.21 in /  1022.9 hPa Calm     75 % 0.00 in /  0 mm
22:12 41.3 °F /  5.2 °C 34.3 °F /  1.3 °C 30.21 in /  1022.9 hPa Calm     76 % 0.00 in /  0 mm
22:17 41.2 °F /  5.1 °C 34.2 °F /  1.2 °C 30.21 in /  1022.9 hPa Calm     76 % 0.00 in /  0 mm
22:22 41.3 °F /  5.2 °C 34.0 °F /  1.1 °C 30.21 in /  1022.9 hPa Calm     75 % 0.00 in /  0 mm
22:27 41.6 °F /  5.3 °C 34.3 °F /  1.3 °C 30.21 in /  1022.9 hPa Calm     75 % 0.00 in /  0 mm
22:32 41.7 °F /  5.4 °C 34.0 °F /  1.1 °C 30.21 in /  1022.9 hPa Calm     74 % 0.00 in /  0 mm
22:37 41.6 °F /  5.3 °C 33.6 °F /  0.9 °C 30.21 in /  1022.9 hPa Calm     73 % 0.00 in /  0 mm
22:42 40.7 °F /  4.8 °C 33.1 °F /  0.6 °C 30.21 in /  1022.9 hPa Calm     74 % 0.00 in /  0 mm
22:47 39.9 °F /  4.4 °C 32.9 °F /  0.5 °C 30.21 in /  1022.9 hPa Calm     76 % 0.00 in /  0 mm
22:52 39.3 °F /  4.1 °C 33.0 °F /  0.6 °C 30.21 in /  1022.9 hPa Calm     78 % 0.00 in /  0 mm
22:57 38.9 °F /  3.8 °C 32.9 °F /  0.5 °C 30.20 in /  1022.6 hPa Calm     79 % 0.00 in /  0 mm
23:02 38.6 °F /  3.7 °C 33.0 °F /  0.6 °C 30.20 in /  1022.6 hPa Calm     80 % 0.00 in /  0 mm
23:07 38.4 °F /  3.6 °C 33.1 °F /  0.6 °C 30.20 in /  1022.6 hPa Calm     81 % 0.00 in /  0 mm
23:12 38.2 °F /  3.4 °C 32.9 °F /  0.5 °C 30.20 in /  1022.6 hPa Calm     81 % 0.00 in /  0 mm
23:17 38.1 °F /  3.4 °C 33.1 °F /  0.6 °C 30.20 in /  1022.6 hPa Calm     82 % 0.00 in /  0 mm
23:22 37.9 °F /  3.3 °C 32.6 °F /  0.3 °C 30.20 in /  1022.6 hPa Calm     81 % 0.00 in /  0 mm
23:27 37.8 °F /  3.2 °C 32.8 °F /  0.4 °C 30.20 in /  1022.6 hPa Calm     82 % 0.00 in /  0 mm
23:32 37.7 °F /  3.2 °C 33.0 °F /  0.6 °C 30.20 in /  1022.6 hPa Calm     83 % 0.00 in /  0 mm
23:37 37.6 °F /  3.1 °C 32.9 °F /  0.5 °C 30.20 in /  1022.6 hPa Calm     83 % 0.00 in /  0 mm
23:42 37.7 °F /  3.2 °C 32.7 °F /  0.4 °C 30.20 in /  1022.6 hPa Calm     82 % 0.00 in /  0 mm
23:47 37.7 °F /  3.2 °C 33.0 °F /  0.6 °C 30.19 in /  1022.2 hPa Calm     83 % 0.00 in /  0 mm
23:52 37.8 °F /  3.2 °C 32.8 °F /  0.4 °C 30.19 in /  1022.2 hPa Calm     82 % 0.00 in /  0 mm
23:57 37.9 °F /  3.3 °C 32.9 °F /  0.5 °C 30.19 in /  1022.2 hPa Calm     82 % 0.00 in /  0 mm
Park Place, Exeter, Tulare County, California, USA
Compliments of Weather Underground - 2.75 mb